createdAt,value
2019-04-03T00:00:05.269Z,0
2019-04-03T00:01:04.855Z,0
2019-04-03T00:03:45.286Z,0
2019-04-03T00:04:44.147Z,0
2019-04-03T00:05:43.067Z,0
2019-04-03T00:06:42.017Z,0
2019-04-03T00:09:32.757Z,0
2019-04-03T00:10:32.959Z,0
2019-04-03T00:11:32.271Z,0
2019-04-03T00:12:31.027Z,0
2019-04-03T00:16:54.066Z,0
2019-04-03T00:17:52.815Z,0
2019-04-03T00:20:33.645Z,0
2019-04-03T00:21:32.524Z,0
2019-04-03T00:22:32.105Z,0
2019-04-03T00:23:31.048Z,0
2019-04-03T00:25:54.286Z,0
2019-04-03T00:26:53.136Z,0
2019-04-03T00:27:52.442Z,0
2019-04-03T00:28:52.240Z,0
2019-04-03T00:29:50.502Z,0
2019-04-03T00:30:51.098Z,0
2019-04-03T00:31:53.849Z,0
2019-04-03T00:32:53.493Z,0
2019-04-03T00:33:51.629Z,0
2019-04-03T00:34:49.985Z,0
2019-04-03T00:35:48.845Z,0
2019-04-03T00:36:47.631Z,0
2019-04-03T00:37:46.471Z,0
2019-04-03T00:38:45.298Z,0
2019-04-03T00:39:44.230Z,0
2019-04-03T00:40:42.966Z,0
2019-04-03T00:41:41.845Z,0
2019-04-03T00:42:40.611Z,0
2019-04-03T00:43:39.396Z,0
2019-04-03T00:44:38.348Z,0
2019-04-03T00:45:37.162Z,0
2019-04-03T00:46:36.087Z,0
2019-04-03T00:47:34.950Z,0
2019-04-03T00:48:33.792Z,0
2019-04-03T00:49:32.618Z,0
2019-04-03T00:50:31.423Z,0
2019-04-03T00:51:30.340Z,0
2019-04-03T00:52:29.058Z,0
2019-04-03T00:53:28.300Z,0
2019-04-03T00:54:26.954Z,0
2019-04-03T00:55:26.587Z,0
2019-04-03T00:56:24.773Z,0
2019-04-03T00:57:24.659Z,0
2019-04-03T01:00:05.199Z,0
2019-04-03T01:01:04.466Z,0
2019-04-03T01:02:03.186Z,0
2019-04-03T01:03:02.093Z,0
2019-04-03T01:04:00.880Z,0
2019-04-03T01:05:00.066Z,0
2019-04-03T01:05:59.032Z,0
2019-04-03T01:06:58.554Z,0
2019-04-03T01:07:59.110Z,0
2019-04-03T01:08:55.796Z,0
2019-04-03T01:09:54.756Z,0
2019-04-03T01:10:53.638Z,0
2019-04-03T01:11:52.459Z,0
2019-04-03T01:12:51.281Z,0
2019-04-03T01:16:18.780Z,0
2019-04-03T01:19:00.151Z,0
2019-04-03T01:19:59.019Z,0
2019-04-03T01:20:58.031Z,0
2019-04-03T01:21:56.818Z,0
2019-04-03T01:22:55.964Z,0
2019-04-03T01:23:54.745Z,0
2019-04-03T01:24:53.659Z,0
2019-04-03T01:27:37.247Z,0
2019-04-03T01:28:36.403Z,0
2019-04-03T01:29:35.214Z,0
2019-04-03T01:30:34.289Z,0
2019-04-03T01:31:33.154Z,0
2019-04-03T01:32:32.405Z,0
2019-04-03T01:33:31.349Z,0
2019-04-03T01:34:30.253Z,0
2019-04-03T01:35:29.052Z,0
2019-04-03T01:38:09.433Z,0
2019-04-03T01:39:08.297Z,0
2019-04-03T01:42:05.321Z,0
2019-04-03T01:45:03.985Z,0
2019-04-03T01:46:02.863Z,0
2019-04-03T01:47:01.763Z,0
2019-04-03T01:48:00.876Z,0
2019-04-03T01:53:12.308Z,0
2019-04-03T02:05:43.757Z,0
2019-04-03T02:06:41.773Z,0
2019-04-03T02:07:39.960Z,0
2019-04-03T02:08:38.745Z,0
2019-04-03T02:11:19.320Z,0
2019-04-03T02:12:19.703Z,0
2019-04-03T02:13:17.179Z,0
2019-04-03T02:15:32.498Z,0
2019-04-03T02:16:31.416Z,0
2019-04-03T02:17:30.339Z,0
2019-04-03T02:18:29.163Z,0
2019-04-03T02:19:28.106Z,0
2019-04-03T02:20:27.235Z,0
2019-04-03T02:21:27.650Z,0
2019-04-03T02:22:24.853Z,0
2019-04-03T02:23:23.682Z,0
2019-04-03T02:24:22.947Z,0
2019-04-03T02:25:21.968Z,0
2019-04-03T02:26:20.848Z,0
2019-04-03T02:27:19.671Z,0
2019-04-03T02:28:18.746Z,0
2019-04-03T02:29:17.599Z,0
2019-04-03T02:30:16.679Z,0
2019-04-03T02:31:17.736Z,0
2019-04-03T02:32:14.508Z,0
2019-04-03T02:33:13.333Z,0
2019-04-03T02:34:12.205Z,0
2019-04-03T02:35:11.092Z,0
2019-04-03T02:36:12.132Z,0
2019-04-03T02:37:09.037Z,0
2019-04-03T02:38:08.114Z,0
2019-04-03T02:39:06.701Z,0
2019-04-03T02:40:05.614Z,0
2019-04-03T02:41:05.162Z,0
2019-04-03T02:42:03.353Z,0
2019-04-03T02:43:02.446Z,0
2019-04-03T02:44:01.717Z,0
2019-04-03T02:45:00.599Z,0
2019-04-03T02:45:59.473Z,0
2019-04-03T02:47:00.716Z,0
2019-04-03T02:47:57.653Z,0
2019-04-03T02:48:56.399Z,0
2019-04-03T02:49:55.233Z,0
2019-04-03T02:50:54.192Z,0
2019-04-03T02:51:53.802Z,0
2019-04-03T02:52:51.892Z,0
2019-04-03T02:53:51.240Z,0
2019-04-03T02:54:49.614Z,0
2019-04-03T02:55:48.667Z,0
2019-04-03T02:56:47.362Z,0
2019-04-03T02:57:48.331Z,0
2019-04-03T02:58:45.003Z,0
2019-04-03T02:59:44.701Z,0
2019-04-03T03:00:43.583Z,0
2019-04-03T03:01:42.914Z,0
2019-04-03T03:02:43.970Z,0
2019-04-03T03:03:40.662Z,0
2019-04-03T03:04:39.811Z,0
2019-04-03T03:05:39.326Z,0
2019-04-03T03:06:38.324Z,0
2019-04-03T03:07:37.454Z,0
2019-04-03T03:08:36.011Z,0
2019-04-03T03:09:35.000Z,0
2019-04-03T03:10:33.749Z,0
2019-04-03T03:11:32.563Z,0
2019-04-03T03:12:31.455Z,0
2019-04-03T03:13:33.213Z,0
2019-04-03T03:14:29.160Z,0
2019-04-03T03:15:28.131Z,0
2019-04-03T03:16:26.997Z,0
2019-04-03T03:17:26.180Z,0
2019-04-03T03:18:27.072Z,0
2019-04-03T03:19:23.946Z,0
2019-04-03T03:20:22.511Z,0
2019-04-03T03:21:21.414Z,0
2019-04-03T03:22:20.401Z,0
2019-04-03T03:23:22.397Z,0
2019-04-03T03:24:18.022Z,0
2019-04-03T03:25:16.993Z,0
2019-04-03T03:26:15.778Z,0
2019-04-03T03:27:14.613Z,0
2019-04-03T03:28:14.404Z,0
2019-04-03T03:29:17.265Z,0
2019-04-03T03:30:32.444Z,0
2019-04-03T03:31:10.655Z,0
2019-04-03T03:32:16.863Z,0
2019-04-03T03:33:26.278Z,0
2019-04-03T03:34:06.953Z,0
2019-04-03T03:35:11.485Z,0
2019-04-03T03:36:04.984Z,0
2019-04-03T03:37:04.296Z,0
2019-04-03T03:38:04.353Z,0
2019-04-03T03:39:02.097Z,0
2019-04-03T03:40:01.202Z,0
2019-04-03T03:40:59.987Z,0
2019-04-03T03:41:59.250Z,0
2019-04-03T03:42:57.578Z,0
2019-04-03T03:43:57.306Z,0
2019-04-03T03:44:55.797Z,0
2019-04-03T03:45:54.666Z,0
2019-04-03T03:46:53.496Z,0
2019-04-03T03:47:52.347Z,0
2019-04-03T03:48:51.112Z,0
2019-04-03T03:49:50.823Z,0
2019-04-03T03:50:48.854Z,0
2019-04-03T03:51:47.925Z,0
2019-04-03T03:52:46.541Z,0
2019-04-03T03:53:46.109Z,0
2019-04-03T03:54:44.550Z,0
2019-04-03T03:55:43.556Z,0
2019-04-03T03:56:42.547Z,0
2019-04-03T03:57:41.227Z,0
2019-04-03T03:58:44.526Z,0
2019-04-03T03:59:39.442Z,0
2019-04-03T04:00:38.803Z,0
2019-04-03T04:02:43.359Z,0
2019-04-03T04:03:41.019Z,0
2019-04-03T04:04:38.699Z,0
2019-04-03T04:05:37.593Z,0
2019-04-03T04:06:38.989Z,0
2019-04-03T04:07:38.309Z,0
2019-04-03T04:08:36.646Z,0
2019-04-03T04:09:35.656Z,0
2019-04-03T04:10:36.256Z,0
2019-04-03T04:11:34.374Z,0
2019-04-03T04:12:33.357Z,0
2019-04-03T04:13:32.420Z,0
2019-04-03T04:14:30.802Z,0
2019-04-03T04:15:30.875Z,0
2019-04-03T04:16:28.938Z,0
2019-04-03T04:17:27.817Z,0
2019-04-03T04:18:27.814Z,0
2019-04-03T04:19:29.261Z,0
2019-04-03T04:20:25.168Z,0
2019-04-03T04:21:24.024Z,0
2019-04-03T04:22:26.241Z,0
2019-04-03T04:23:24.169Z,0
2019-04-03T04:24:21.098Z,0
2019-04-03T04:25:20.075Z,0
2019-04-03T04:26:18.938Z,0
2019-04-03T04:27:17.878Z,0
2019-04-03T04:28:17.588Z,0
2019-04-03T04:29:16.384Z,0
2019-04-03T04:30:24.658Z,0
2019-04-03T04:31:23.987Z,0
2019-04-03T04:32:22.822Z,0
2019-04-03T04:33:21.919Z,0
2019-04-03T04:34:20.588Z,0
2019-04-03T04:37:44.401Z,0
2019-04-03T04:38:43.281Z,0
2019-04-03T04:39:42.160Z,0
2019-04-03T04:40:40.993Z,0
2019-04-03T04:41:39.808Z,4
2019-04-03T04:42:38.800Z,4
2019-04-03T04:43:39.147Z,0
2019-04-03T04:44:36.459Z,0
2019-04-03T04:45:35.218Z,4
2019-04-03T04:46:33.950Z,4
2019-04-03T04:49:14.540Z,8
2019-04-03T04:50:13.360Z,8
2019-04-03T04:51:12.618Z,8
2019-04-03T05:04:56.514Z,44
2019-04-03T05:05:57.187Z,52
2019-04-03T05:06:54.059Z,60
2019-04-03T05:07:53.624Z,68
2019-04-03T05:08:52.608Z,76
2019-04-03T05:09:51.428Z,80
2019-04-03T05:10:50.309Z,88
2019-04-03T05:11:49.129Z,88
2019-04-03T05:12:48.203Z,88
2019-04-03T05:13:47.243Z,92
2019-04-03T05:14:46.805Z,92
2019-04-03T05:15:44.737Z,96
2019-04-03T05:16:43.743Z,100
2019-04-03T05:17:42.812Z,104
2019-04-03T05:18:41.509Z,120
2019-04-03T05:19:40.516Z,132
2019-04-03T05:20:39.530Z,144
2019-04-03T05:21:38.239Z,160
2019-04-03T05:22:37.104Z,168
2019-04-03T05:23:36.150Z,176
2019-04-03T05:24:35.194Z,180
2019-04-03T05:25:33.958Z,184
2019-04-03T05:26:32.911Z,180
2019-04-03T05:27:34.353Z,184
2019-04-03T05:28:33.945Z,204
2019-04-03T05:29:30.418Z,228
2019-04-03T05:30:29.317Z,252
2019-04-03T05:31:28.269Z,280
2019-04-03T05:32:27.308Z,300
2019-04-03T05:33:26.392Z,308
2019-04-03T05:34:25.095Z,312
2019-04-03T05:35:24.045Z,312
2019-04-03T05:36:22.951Z,316
2019-04-03T05:37:21.873Z,304
2019-04-03T05:38:22.448Z,292
2019-04-03T05:39:19.785Z,296
2019-04-03T05:40:18.974Z,316
2019-04-03T05:41:17.853Z,340
2019-04-03T05:42:17.011Z,360
2019-04-03T05:43:15.943Z,372
2019-04-03T05:44:15.379Z,380
2019-04-03T05:45:14.237Z,388
2019-04-03T05:46:13.107Z,400
2019-04-03T05:47:12.030Z,396
2019-04-03T05:48:13.318Z,392
2019-04-03T05:49:10.924Z,380
2019-04-03T05:50:08.612Z,376
2019-04-03T05:51:07.424Z,388
2019-04-03T05:52:06.635Z,416
2019-04-03T05:53:06.020Z,448
2019-04-03T05:54:04.252Z,472
2019-04-03T05:55:03.015Z,496
2019-04-03T05:56:01.836Z,512
2019-04-03T05:57:00.669Z,524
2019-04-03T05:57:59.435Z,524
2019-04-03T05:59:00.950Z,540
2019-04-03T06:00:00.261Z,540
2019-04-03T06:01:03.897Z,528
2019-04-03T06:01:55.701Z,524
2019-04-03T06:02:57.016Z,508
2019-04-03T06:03:53.559Z,508
2019-04-03T06:04:52.540Z,524
2019-04-03T06:05:51.426Z,544
2019-04-03T06:06:50.117Z,556
2019-04-03T06:07:49.772Z,576
2019-04-03T06:08:50.613Z,608
2019-04-03T06:09:47.452Z,640
2019-04-03T06:10:46.333Z,672
2019-04-03T06:11:47.098Z,720
2019-04-03T06:12:46.368Z,764
2019-04-03T06:13:47.329Z,756
2019-04-03T06:14:43.853Z,672
2019-04-03T06:15:42.825Z,664
2019-04-03T06:16:41.680Z,696
2019-04-03T06:17:40.579Z,740
2019-04-03T06:18:39.407Z,800
2019-04-03T06:19:39.756Z,812
2019-04-03T06:20:37.493Z,824
2019-04-03T06:21:36.407Z,828
2019-04-03T06:22:35.266Z,824
2019-04-03T06:23:34.149Z,776
2019-04-03T06:24:33.130Z,736
2019-04-03T06:25:31.999Z,696
2019-04-03T06:26:30.943Z,632
2019-04-03T06:27:29.767Z,604
2019-04-03T06:28:28.669Z,540
2019-04-03T06:29:27.476Z,504
2019-04-03T06:30:26.402Z,496
2019-04-03T06:31:26.342Z,496
2019-04-03T06:32:24.879Z,500
2019-04-03T06:33:22.978Z,532
2019-04-03T06:34:21.817Z,572
2019-04-03T06:35:20.685Z,600
2019-04-03T06:36:19.641Z,612
2019-04-03T06:37:20.147Z,600
2019-04-03T06:38:18.301Z,580
2019-04-03T06:39:17.534Z,560
2019-04-03T06:40:16.442Z,560
2019-04-03T06:41:16.484Z,584
2019-04-03T06:42:15.347Z,612
2019-04-03T06:43:15.303Z,612
2019-04-03T06:44:13.111Z,608
2019-04-03T06:45:14.860Z,620
2019-04-03T06:46:10.873Z,620
2019-04-03T06:47:09.698Z,608
2019-04-03T06:48:08.918Z,592
2019-04-03T06:49:08.455Z,608
2019-04-03T06:50:06.723Z,624
2019-04-03T06:51:05.698Z,644
2019-04-03T06:52:05.426Z,660
2019-04-03T06:55:36.648Z,660
2019-04-03T06:56:35.347Z,656
2019-04-03T06:57:34.536Z,684
2019-04-03T06:58:38.471Z,696
2019-04-03T06:59:32.110Z,648
2019-04-03T07:00:30.990Z,592
2019-04-03T07:01:29.799Z,548
2019-04-03T07:02:31.189Z,520
2019-04-03T07:03:27.399Z,508
2019-04-03T07:04:26.383Z,524
2019-04-03T07:05:27.308Z,536
2019-04-03T07:06:24.267Z,560
2019-04-03T07:07:32.886Z,608
2019-04-03T07:08:29.298Z,580
2019-04-03T07:09:23.302Z,552
2019-04-03T07:10:34.482Z,536
2019-04-03T07:11:33.212Z,516
2019-04-03T07:14:12.784Z,440
2019-04-03T07:15:23.935Z,452
2019-04-03T07:16:41.776Z,456
2019-04-03T07:18:11.528Z,452
2019-04-03T07:19:28.964Z,480
2019-04-03T07:21:22.581Z,560
2019-04-03T07:22:19.915Z,644
2019-04-03T07:23:29.525Z,704
2019-04-03T07:25:12.492Z,692
2019-04-03T07:26:11.945Z,708
2019-04-03T07:28:02.912Z,716
2019-04-03T07:29:52.769Z,712
2019-04-03T07:31:11.780Z,692
2019-04-03T07:32:20.702Z,660
2019-04-03T07:34:03.959Z,752
2019-04-03T07:35:22.867Z,820
2019-04-03T07:38:33.842Z,928
2019-04-03T07:39:33.789Z,968
2019-04-03T07:40:42.656Z,1028
2019-04-03T07:48:46.918Z,572
2019-04-03T07:49:49.857Z,616
2019-04-03T07:53:36.196Z,752
2019-04-03T07:57:20.399Z,960
2019-04-03T07:58:52.251Z,1108
2019-04-03T08:00:02.283Z,1240
2019-04-03T08:01:05.335Z,1476
2019-04-03T08:04:07.829Z,1292
2019-04-03T08:05:07.229Z,1256
2019-04-03T08:07:47.878Z,1464
2019-04-03T08:09:09.632Z,1476
2019-04-03T08:12:18.496Z,1772
2019-04-03T08:13:18.511Z,1936
2019-04-03T08:14:19.331Z,2056
2019-04-03T08:15:16.475Z,2008
2019-04-03T08:16:16.620Z,1884
2019-04-03T08:17:56.712Z,2132
2019-04-03T08:19:34.559Z,2892
2019-04-03T08:26:26.842Z,3816
2019-04-03T08:28:27.986Z,4188
2019-04-03T08:31:06.121Z,4968
2019-04-03T08:38:26.330Z,4936
2019-04-03T08:40:45.805Z,5892
2019-04-03T08:45:38.375Z,4648
2019-04-03T08:51:16.606Z,3052
2019-04-03T08:56:28.296Z,2908
2019-04-03T08:57:27.165Z,2992
2019-04-03T09:06:51.709Z,4796
2019-04-03T09:11:57.308Z,4516
2019-04-03T09:12:56.979Z,3620
2019-04-03T09:19:42.805Z,3136
2019-04-03T09:21:43.176Z,3632
2019-04-03T09:28:55.520Z,4088
2019-04-03T09:31:30.083Z,4736
2019-04-03T09:37:49.082Z,5584
2019-04-03T09:40:58.653Z,4844
2019-04-03T09:42:42.238Z,4552
2019-04-03T09:46:12.270Z,2584
2019-04-03T09:47:19.173Z,2288
2019-04-03T09:53:16.065Z,2240
2019-04-03T09:54:34.400Z,2248
2019-04-03T09:55:44.526Z,2348
2019-04-03T09:56:59.875Z,2092
2019-04-03T09:58:49.529Z,1728
2019-04-03T10:00:15.786Z,1976
2019-04-03T10:01:47.790Z,2256
2019-04-03T10:03:42.463Z,3008
2019-04-03T10:05:32.050Z,3704
2019-04-03T10:06:49.534Z,4384
2019-04-03T10:07:48.202Z,4628
2019-04-03T10:12:57.674Z,3496
2019-04-03T10:15:52.715Z,3072
2019-04-03T10:17:59.951Z,3548
2019-04-03T10:23:16.890Z,5468
2019-04-03T10:27:31.759Z,5512
2019-04-03T10:31:55.712Z,6096
2019-04-03T10:35:47.180Z,6044
2019-04-03T10:39:57.224Z,5240
2019-04-03T10:42:55.037Z,5132
2019-04-03T10:46:03.194Z,4956
2019-04-03T10:49:44.949Z,4692
2019-04-03T10:51:20.947Z,4712
2019-04-03T10:52:32.128Z,5032
2019-04-03T10:57:31.668Z,5040
2019-04-03T11:00:14.589Z,4772
2019-04-03T11:01:32.540Z,4388
2019-04-03T11:03:41.801Z,3792
2019-04-03T11:05:05.521Z,3720
2019-04-03T11:06:26.453Z,3712
2019-04-03T11:07:36.849Z,3876
2019-04-03T11:09:00.138Z,3972
2019-04-03T11:10:32.420Z,3788
2019-04-03T11:12:03.188Z,3612
2019-04-03T11:13:27.300Z,3560
2019-04-03T11:14:34.404Z,3584
2019-04-03T11:15:54.943Z,3516
2019-04-03T11:16:53.743Z,3192
2019-04-03T11:18:08.446Z,2564
2019-04-03T11:19:07.477Z,2320
2019-04-03T11:20:36.383Z,2252
2019-04-03T11:21:35.524Z,2348
2019-04-03T11:22:48.984Z,2540
2019-04-03T11:24:07.211Z,2896
2019-04-03T11:25:34.866Z,3240
2019-04-03T11:26:34.324Z,3208
2019-04-03T11:28:01.328Z,3160
2019-04-03T11:29:00.703Z,3112
2019-04-03T11:31:43.283Z,2652
2019-04-03T11:33:29.330Z,2552
2019-04-03T11:37:31.827Z,2936
2019-04-03T11:38:41.924Z,3252
2019-04-03T11:39:42.352Z,3732
2019-04-03T11:40:41.121Z,4080
2019-04-03T11:41:47.945Z,4096
2019-04-03T11:42:58.814Z,3968
2019-04-03T11:44:21.158Z,3864
2019-04-03T11:45:52.579Z,3616
2019-04-03T11:46:54.874Z,3508
2019-04-03T11:50:23.414Z,3624
2019-04-03T11:51:40.878Z,3232
2019-04-03T11:52:39.979Z,2900
2019-04-03T11:53:39.052Z,2636
2019-04-03T11:54:39.195Z,2536
2019-04-03T11:55:36.813Z,2564
2019-04-03T11:56:36.216Z,2620
2019-04-03T11:57:35.598Z,2660
2019-04-03T11:58:34.898Z,2712
2019-04-03T11:59:49.081Z,2724
2019-04-03T12:01:19.059Z,2624
2019-04-03T12:02:18.458Z,2584
2019-04-03T12:03:17.553Z,2576
2019-04-03T12:04:16.059Z,2516
2019-04-03T12:05:16.514Z,2480
2019-04-03T12:06:15.811Z,2636
2019-04-03T12:07:37.381Z,3204
2019-04-03T12:08:45.674Z,3688
2019-04-03T12:09:48.230Z,3984
2019-04-03T12:12:44.809Z,4312
2019-04-03T12:13:47.457Z,4432
2019-04-03T12:14:59.032Z,4416
2019-04-03T12:16:10.521Z,4348
2019-04-03T12:17:19.083Z,4200
2019-04-03T12:18:51.217Z,4024
2019-04-03T12:21:20.286Z,4588
2019-04-03T12:23:59.807Z,5436
2019-04-03T12:27:39.311Z,5228
2019-04-03T12:29:12.631Z,5252
2019-04-03T12:31:41.140Z,5420
2019-04-03T12:32:48.882Z,5292
2019-04-03T12:34:14.066Z,5052
2019-04-03T12:35:13.468Z,4892
2019-04-03T12:36:23.651Z,4936
2019-04-03T12:37:26.298Z,5248
2019-04-03T12:38:25.685Z,5612
2019-04-03T12:40:25.138Z,6564
2019-04-03T12:41:58.357Z,6964
2019-04-03T12:43:15.948Z,6976
2019-04-03T12:44:15.948Z,6596
2019-04-03T12:45:28.438Z,6036
2019-04-03T12:46:33.319Z,5672
2019-04-03T12:49:26.806Z,5248
2019-04-03T12:50:27.519Z,5156
2019-04-03T12:51:41.179Z,5076
2019-04-03T12:53:41.434Z,4668
2019-04-03T12:55:16.223Z,4752
2019-04-03T12:56:15.035Z,4884
2019-04-03T12:57:40.333Z,5240
2019-04-03T12:58:56.443Z,5484
2019-04-03T13:00:46.080Z,6504
2019-04-03T13:02:25.818Z,6916
2019-04-03T13:03:37.126Z,5932
2019-04-03T13:06:58.001Z,5180
2019-04-03T13:11:26.579Z,5136
2019-04-03T13:14:56.577Z,4048
2019-04-03T13:17:59.906Z,3108
2019-04-03T13:19:05.231Z,2600
2019-04-03T13:20:12.413Z,2324
2019-04-03T13:25:07.425Z,1972
2019-04-03T13:26:10.660Z,2328
2019-04-03T13:27:13.575Z,2756
2019-04-03T13:28:57.117Z,3252
2019-04-03T13:32:43.173Z,2560
2019-04-03T13:33:47.326Z,2444
2019-04-03T13:35:49.594Z,2236
2019-04-03T13:37:04.178Z,2288
2019-04-03T13:39:44.165Z,3372
2019-04-03T13:43:25.661Z,4076
2019-04-03T13:46:10.054Z,3632
2019-04-03T13:51:01.068Z,3524
2019-04-03T13:58:47.423Z,3028
2019-04-03T14:01:40.147Z,2448
2019-04-03T14:02:37.440Z,2440
2019-04-03T14:05:33.211Z,1656
2019-04-03T14:07:41.466Z,1004
2019-04-03T14:09:59.275Z,828
2019-04-03T14:10:58.821Z,908
2019-04-03T14:12:00.408Z,964
2019-04-03T14:13:03.607Z,932
2019-04-03T14:14:02.715Z,840
2019-04-03T14:15:04.300Z,756
2019-04-03T14:16:44.784Z,660
2019-04-03T14:18:00.005Z,664
2019-04-03T14:19:51.473Z,688
2019-04-03T14:21:44.076Z,620
2019-04-03T14:23:11.102Z,620
2019-04-03T14:25:37.040Z,688
2019-04-03T14:26:46.350Z,888
2019-04-03T14:29:00.381Z,840
2019-04-03T14:35:38.903Z,712
2019-04-03T14:36:21.688Z,724
2019-04-03T14:37:33.069Z,692
2019-04-03T14:40:20.430Z,600
2019-04-03T14:41:23.181Z,524
2019-04-03T14:43:10.981Z,584
2019-04-03T14:44:13.833Z,652
2019-04-03T14:45:33.252Z,636
2019-04-03T14:47:04.535Z,604
2019-04-03T14:48:29.264Z,628
2019-04-03T14:49:55.465Z,660
2019-04-03T14:50:58.788Z,628
2019-04-03T14:51:57.575Z,596
2019-04-03T14:52:57.141Z,596
2019-04-03T14:54:21.965Z,612
2019-04-03T14:56:46.951Z,564
2019-04-03T14:59:54.688Z,516
2019-04-03T15:03:37.084Z,760
2019-04-03T15:04:37.582Z,796
2019-04-03T15:07:43.832Z,636
2019-04-03T15:08:43.150Z,620
2019-04-03T15:14:29.430Z,444
2019-04-03T15:18:27.297Z,404
2019-04-03T15:23:09.358Z,700
2019-04-03T15:24:11.348Z,656
2019-04-03T15:26:24.833Z,488
2019-04-03T15:29:16.280Z,456
2019-04-03T15:31:25.625Z,616
2019-04-03T15:32:26.140Z,624
2019-04-03T15:35:03.407Z,624
2019-04-03T15:37:54.736Z,520
2019-04-03T15:40:48.862Z,448
2019-04-03T15:44:06.329Z,500
2019-04-03T15:48:15.158Z,420
2019-04-03T15:49:21.226Z,496
2019-04-03T15:51:06.045Z,632
2019-04-03T15:52:52.252Z,816
2019-04-03T15:54:12.924Z,860
2019-04-03T15:55:58.351Z,932
2019-04-03T15:57:23.204Z,1036
2019-04-03T15:59:36.688Z,1120
2019-04-03T16:01:51.487Z,1456
2019-04-03T16:07:33.278Z,304
2019-04-03T16:13:58.348Z,448
2019-04-03T16:15:03.298Z,440
2019-04-03T16:18:13.652Z,568
2019-04-03T16:20:50.683Z,396
2019-04-03T16:22:16.191Z,372
2019-04-03T16:30:07.040Z,552
2019-04-03T16:31:05.099Z,512
2019-04-03T16:32:13.015Z,444
2019-04-03T16:35:14.473Z,392
2019-04-03T16:38:02.794Z,348
2019-04-03T16:41:07.808Z,312
2019-04-03T16:44:13.480Z,320
2019-04-03T16:48:14.219Z,364
2019-04-03T16:50:04.584Z,368
2019-04-03T16:52:30.372Z,280
2019-04-03T16:54:57.800Z,224
2019-04-03T16:56:25.339Z,200
2019-04-03T16:57:37.141Z,172
2019-04-03T16:59:50.921Z,172
2019-04-03T17:01:25.245Z,176
2019-04-03T17:03:28.070Z,160
2019-04-03T17:05:20.873Z,160
2019-04-03T17:07:31.364Z,168
2019-04-03T17:09:06.660Z,176
2019-04-03T17:10:32.424Z,148
2019-04-03T17:14:33.120Z,92
2019-04-03T17:15:53.022Z,84
2019-04-03T17:18:34.181Z,76
2019-04-03T17:20:00.926Z,72
2019-04-03T17:21:15.405Z,68
2019-04-03T17:22:28.906Z,60
2019-04-03T17:23:38.745Z,48
2019-04-03T17:24:42.694Z,48
2019-04-03T17:26:30.951Z,40
2019-04-03T17:28:37.968Z,40
2019-04-03T17:30:18.222Z,44
2019-04-03T17:32:16.008Z,48
2019-04-03T17:33:26.941Z,44
2019-04-03T17:34:36.986Z,36
2019-04-03T17:35:53.637Z,36
2019-04-03T17:36:58.048Z,36
2019-04-03T17:38:30.889Z,36
2019-04-03T17:39:27.689Z,36
2019-04-03T17:40:27.105Z,36
2019-04-03T17:41:30.420Z,32
2019-04-03T17:42:40.354Z,32
2019-04-03T17:47:47.775Z,24
2019-04-03T17:48:49.959Z,24
2019-04-03T17:50:51.600Z,24
2019-04-03T17:54:01.071Z,16
2019-04-03T17:55:35.274Z,12
2019-04-03T17:56:50.035Z,12
2019-04-03T18:00:21.560Z,8
2019-04-03T18:04:36.898Z,4
2019-04-03T18:07:48.078Z,4
2019-04-03T18:10:45.807Z,0
2019-04-03T18:11:53.883Z,0
2019-04-03T18:19:05.525Z,0
2019-04-03T18:22:52.941Z,0
2019-04-03T18:27:29.022Z,0
2019-04-03T18:30:57.274Z,0
2019-04-03T18:39:36.449Z,0
2019-04-03T18:41:47.674Z,0
2019-04-03T18:43:48.771Z,0
2019-04-03T18:45:03.095Z,0
2019-04-03T18:47:20.744Z,0
2019-04-03T18:50:03.505Z,0
2019-04-03T18:52:07.914Z,0
2019-04-03T18:54:01.525Z,0
2019-04-03T18:56:47.618Z,0
2019-04-03T19:06:21.250Z,0
2019-04-03T19:07:25.536Z,0
2019-04-03T19:13:19.926Z,0
2019-04-03T19:19:48.352Z,0
2019-04-03T19:20:47.283Z,0
2019-04-03T19:21:47.156Z,0
2019-04-03T19:22:46.123Z,0
2019-04-03T19:23:49.761Z,0
2019-04-03T19:29:06.859Z,0
2019-04-03T19:30:07.034Z,0
2019-04-03T19:31:04.280Z,0
2019-04-03T19:54:34.226Z,0
2019-04-03T19:55:33.048Z,0
2019-04-03T19:56:31.723Z,0
2019-04-03T19:57:30.755Z,0
2019-04-03T19:58:29.736Z,0
2019-04-03T19:59:30.134Z,0
2019-04-03T20:00:26.752Z,0
2019-04-03T20:01:25.359Z,0
2019-04-03T20:02:24.030Z,0
2019-04-03T20:03:22.767Z,0
2019-04-03T20:04:21.646Z,0
2019-04-03T20:05:20.285Z,0
2019-04-03T20:06:18.983Z,0
2019-04-03T20:07:17.676Z,0
2019-04-03T20:08:18.263Z,0
2019-04-03T20:09:17.637Z,0
2019-04-03T20:10:13.850Z,0
2019-04-03T20:11:12.739Z,0
2019-04-03T20:12:11.422Z,0
2019-04-03T20:13:10.149Z,0
2019-04-03T20:16:49.520Z,0
2019-04-03T20:17:48.136Z,0
2019-04-03T20:18:46.737Z,0
2019-04-03T20:19:45.503Z,0
2019-04-03T20:20:44.382Z,0
2019-04-03T20:21:43.085Z,0
2019-04-03T20:22:42.492Z,0
2019-04-03T20:23:41.850Z,0
2019-04-03T20:24:39.263Z,0
2019-04-03T20:25:37.883Z,0
2019-04-03T20:26:36.762Z,0
2019-04-03T20:27:35.371Z,0
2019-04-03T20:28:34.000Z,0
2019-04-03T20:29:32.681Z,0
2019-04-03T20:32:54.301Z,0
2019-04-03T20:33:52.969Z,0
2019-04-03T20:34:51.631Z,0
2019-04-03T20:35:50.325Z,0
2019-04-03T20:36:51.761Z,0
2019-04-03T20:37:47.686Z,0
2019-04-03T20:38:46.815Z,0
2019-04-03T20:39:45.417Z,0
2019-04-03T20:40:44.006Z,0
2019-04-03T20:41:42.821Z,0
2019-04-03T20:42:41.589Z,0
2019-04-03T20:43:42.580Z,0
2019-04-03T20:44:39.085Z,0
2019-04-03T20:45:37.331Z,0
2019-04-03T20:46:35.939Z,0
2019-04-03T20:47:34.591Z,0
2019-04-03T20:48:33.276Z,0
2019-04-03T20:49:31.904Z,0
2019-04-03T20:50:30.497Z,0
2019-04-03T20:51:29.126Z,0
2019-04-03T20:52:27.665Z,0
2019-04-03T20:53:26.253Z,0
2019-04-03T20:54:25.066Z,0
2019-04-03T20:55:25.395Z,0
2019-04-03T20:56:22.660Z,0
2019-04-03T20:57:21.586Z,0
2019-04-03T20:58:20.271Z,0
2019-04-03T20:59:19.224Z,0
2019-04-03T21:00:18.397Z,0
2019-04-03T21:01:16.870Z,0
2019-04-03T21:02:15.908Z,0
2019-04-03T21:03:14.903Z,0
2019-04-03T21:04:14.840Z,0
2019-04-03T21:05:12.842Z,0
2019-04-03T21:06:11.642Z,0
2019-04-03T21:07:10.926Z,0
2019-04-03T21:08:09.875Z,0
2019-04-03T21:09:08.826Z,0
2019-04-03T21:10:07.648Z,0
2019-04-03T21:11:06.605Z,0
2019-04-03T21:12:05.607Z,0
2019-04-03T21:13:04.108Z,0
2019-04-03T21:14:05.380Z,0
2019-04-03T21:15:08.020Z,0
2019-04-03T21:15:59.829Z,0
2019-04-03T21:16:58.461Z,0
2019-04-03T21:17:57.173Z,0
2019-04-03T21:18:55.758Z,0
2019-04-03T21:19:54.535Z,0
2019-04-03T21:20:54.699Z,0
2019-04-03T21:21:51.965Z,0
2019-04-03T21:22:51.353Z,0
2019-04-03T21:23:50.182Z,0
2019-04-03T21:24:49.026Z,0
2019-04-03T21:25:47.616Z,0
2019-04-03T21:26:46.369Z,0
2019-04-03T21:27:44.969Z,0
2019-04-03T21:28:44.805Z,0
2019-04-03T21:29:42.486Z,0
2019-04-03T21:30:41.104Z,0
2019-04-03T21:31:39.678Z,0
2019-04-03T21:32:38.350Z,0
2019-04-03T21:33:37.031Z,0
2019-04-03T21:34:35.673Z,0
2019-04-03T21:35:35.146Z,0
2019-04-03T21:36:33.136Z,0
2019-04-03T21:37:31.663Z,0
2019-04-03T21:38:30.357Z,0
2019-04-03T21:39:29.066Z,0
2019-04-03T21:40:27.624Z,0
2019-04-03T21:41:26.310Z,0
2019-04-03T21:42:26.869Z,0
2019-04-03T21:43:23.640Z,0
2019-04-03T21:44:22.324Z,0
2019-04-03T21:45:21.137Z,0
2019-04-03T21:46:19.675Z,0
2019-04-03T21:47:18.255Z,0
2019-04-03T21:48:16.851Z,0
2019-04-03T21:49:16.744Z,0
2019-04-03T21:50:14.463Z,0
2019-04-03T21:51:13.088Z,0
2019-04-03T21:52:11.668Z,0
2019-04-03T21:53:10.291Z,0
2019-04-03T21:54:08.881Z,0
2019-04-03T21:55:07.636Z,0
2019-04-03T21:56:06.340Z,0
2019-04-03T21:57:06.734Z,0
2019-04-03T21:58:03.574Z,0
2019-04-03T21:59:02.353Z,0
2019-04-03T22:00:00.971Z,0
2019-04-03T22:00:59.618Z,0
2019-04-03T22:01:58.229Z,0
2019-04-03T22:02:57.059Z,0
2019-04-03T22:03:55.678Z,0
2019-04-03T22:04:54.518Z,0
2019-04-03T22:05:55.620Z,0
2019-04-03T22:06:51.621Z,0
2019-04-03T22:07:51.944Z,0
2019-04-03T22:08:51.572Z,0
2019-04-03T22:09:49.453Z,0
2019-04-03T22:10:50.308Z,0
2019-04-03T22:11:47.067Z,0
2019-04-03T22:12:45.573Z,0
2019-04-03T22:13:44.155Z,0
2019-04-03T22:14:43.417Z,0
2019-04-03T22:15:41.495Z,0
2019-04-03T22:16:40.030Z,0
2019-04-03T22:17:38.783Z,0
2019-04-03T22:18:37.403Z,0
2019-04-03T22:19:35.958Z,0